Погода Миявана неделю

Тренчинский край, Словакия

20 - 26 июня
  • 20июня
    Сегодня
    +18°
    +26°
    Облачно с прояснениями
    ВремяПогодаТемператураВлажностьДавлениеВетер, м/сВероятность осадков
    02:00Практически безоблачно+18°C86 %733 мм6.6 м/с4 %
    05:00Ясно и безоблачно+17°C81 %734 мм5.7 м/с2 %
    08:00Практически безоблачно+18°C78 %735 мм4.2 м/с2 %
    11:00Практически безоблачно+22°C63 %736 мм3.6 м/с2 %
    14:00Облачно с прояснениями+25°C56 %736 мм1.7 м/с2 %
    17:00Практически безоблачно+26°C54 %735 мм1.8 м/с2 %
    20:00Облачно с прояснениями+24°C71 %734 мм1.1 м/с2 %
    23:00Небольшая облачность+20°C66 %733 мм1.8 м/с2 %
  • 21июня
    Пятница
    +19°
    +29°
    Ясно и безоблачно
    ВремяПогодаТемператураВлажностьДавлениеВетер, м/сВероятность осадков
    02:00Облачно с прояснениями+19°C76 %733 мм3.5 м/с2 %
    05:00Облачно с прояснениями+19°C79 %733 мм3.3 м/с2 %
    08:00Ясно и безоблачно+21°C66 %733 мм3.6 м/с1 %
    11:00Ясно и безоблачно+25°C55 %733 мм4.3 м/с2 %
    14:00Ясно и безоблачно+28°C55 %732 мм4.4 м/с2 %
    17:00Ясно и безоблачно+29°C54 %730 мм4.8 м/с2 %
    20:00Ясно и безоблачно+27°C65 %729 мм3.5 м/с5 %
    23:00Ясно и безоблачно+24°C65 %728 мм4.2 м/с9 %
  • 22июня
    Суббота
    +16°
    +26°
    Ясно и безоблачно
    ВремяПогодаТемператураВлажностьДавлениеВетер, м/сВероятность осадков
    02:00Ясно и безоблачно+22°C72 %728 мм2.7 м/с7 %
    05:00Ясно и безоблачно+20°C90 %728 мм3.3 м/с13 %
    08:00Небольшая облачность+20°C83 %728 мм4.5 м/с32 %
    11:00Небольшая облачность, ливень+22°C83 %729 мм3.4 м/с59 %
    14:00Ясно и безоблачно+25°C61 %729 мм5.1 м/с36 %
    17:00Практически безоблачно+25°C59 %729 мм5.5 м/с19 %
    20:00Ясно и безоблачно+23°C70 %729 мм3.7 м/с3 %
    23:00Ясно и безоблачно+19°C83 %730 мм4.0 м/с2 %
  • 23июня
    Воскресенье
    +15°
    +24°
    Небольшая облачность
    ВремяПогодаТемператураВлажностьДавлениеВетер, м/сВероятность осадков
    02:00Практически безоблачно+18°C75 %729 мм4.3 м/с5 %
    05:00Ясно и безоблачно+17°C77 %730 мм4.6 м/с4 %
    08:00Ясно и безоблачно+19°C70 %731 мм4.8 м/с4 %
    11:00Ясно и безоблачно+22°C55 %732 мм5.1 м/с9 %
    14:00Небольшая облачность+23°C51 %732 мм6.2 м/с9 %
    17:00Облачно с прояснениями+24°C51 %732 мм5.9 м/с6 %
    20:00Ясно и безоблачно+22°C58 %732 мм5.0 м/с5 %
    23:00Ясно и безоблачно+18°C64 %733 мм4.4 м/с6 %
  • 24июня
    Понедельник
    +16°
    +25°
    Практически безоблачно
    ВремяПогодаТемператураВлажностьДавлениеВетер, м/сВероятность осадков
    02:00Ясно и безоблачно+17°C70 %733 мм5.2 м/с7 %
    05:00Ясно и безоблачно+16°C74 %733 мм3.8 м/с4 %
    08:00Ясно и безоблачно+18°C72 %734 мм3.5 м/с3 %
    11:00Ясно и безоблачно+22°C57 %735 мм4.8 м/с4 %
    14:00Практически безоблачно+24°C50 %734 мм5.3 м/с8 %
    17:00Ясно и безоблачно+25°C51 %734 мм5.4 м/с7 %
    20:00Ясно и безоблачно+23°C58 %734 мм4.7 м/с9 %
    23:00Небольшая облачность+19°C66 %735 мм4.1 м/с8 %
Мы используем cookies
Соглашаюсь